createdAt,value
2019-02-16T00:01:15.133Z,3.90
2019-02-16T00:03:43.404Z,4.10
2019-02-16T00:06:11.399Z,4.00
2019-02-16T00:08:41.416Z,4.13
2019-02-16T00:11:09.781Z,3.87
2019-02-16T00:13:37.915Z,4.17
2019-02-16T00:16:05.960Z,4.40
2019-02-16T00:18:33.940Z,4.33
2019-02-16T00:21:04.307Z,4.07
2019-02-16T00:23:31.783Z,3.90
2019-02-16T00:25:59.821Z,4.43
2019-02-16T00:28:31.061Z,4.10
2019-02-16T00:30:59.072Z,3.83
2019-02-16T00:33:26.994Z,4.20
2019-02-16T00:35:55.857Z,4.10
2019-02-16T00:38:23.928Z,4.23
2019-02-16T00:40:51.929Z,4.43
2019-02-16T00:43:20.069Z,4.30
2019-02-16T00:45:48.044Z,4.57
2019-02-16T00:48:16.072Z,5.00
2019-02-16T00:50:44.040Z,4.60
2019-02-16T00:53:11.944Z,4.33
2019-02-16T00:55:40.313Z,5.17
2019-02-16T00:58:08.269Z,4.87
2019-02-16T01:00:36.281Z,4.87
2019-02-16T01:03:05.133Z,4.83
2019-02-16T01:05:33.672Z,4.93
2019-02-16T01:08:01.691Z,4.97
2019-02-16T01:10:29.708Z,5.43
2019-02-16T01:12:57.717Z,5.20
2019-02-16T01:15:25.752Z,5.20
2019-02-16T01:17:53.793Z,4.93
2019-02-16T01:20:21.791Z,5.53
2019-02-16T01:22:49.752Z,5.93
2019-02-16T01:25:17.848Z,5.57
2019-02-16T01:27:45.902Z,6.30
2019-02-16T01:30:14.249Z,5.93
2019-02-16T01:32:42.759Z,6.77
2019-02-16T01:35:11.067Z,6.53
2019-02-16T01:37:39.078Z,7.10
2019-02-16T01:40:08.820Z,7.03
2019-02-16T01:42:36.759Z,6.30
2019-02-16T01:45:04.913Z,6.70
2019-02-16T01:47:32.972Z,7.13
2019-02-16T01:50:01.002Z,7.23
2019-02-16T01:52:28.936Z,6.80
2019-02-16T01:54:57.449Z,7.10
2019-02-16T01:57:25.408Z,7.10
2019-02-16T01:59:53.420Z,7.10
2019-02-16T02:02:21.439Z,6.77
2019-02-16T02:04:49.403Z,7.00
2019-02-16T02:07:17.364Z,7.00
2019-02-16T02:09:45.396Z,6.50
2019-02-16T02:12:13.545Z,6.70
2019-02-16T02:14:41.586Z,6.93
2019-02-16T02:17:09.724Z,6.70
2019-02-16T02:19:37.788Z,6.57
2019-02-16T02:22:05.767Z,6.97
2019-02-16T02:24:33.824Z,6.80
2019-02-16T02:27:01.834Z,6.97
2019-02-16T02:29:29.832Z,7.30
2019-02-16T02:31:57.804Z,7.47
2019-02-16T02:34:25.811Z,7.47
2019-02-16T02:36:53.761Z,6.63
2019-02-16T02:39:21.686Z,7.57
2019-02-16T02:41:49.966Z,6.60
2019-02-16T02:44:17.971Z,6.83
2019-02-16T02:46:46.411Z,6.63
2019-02-16T02:49:14.506Z,7.07
2019-02-16T02:51:51.731Z,7.10
2019-02-16T02:54:12.248Z,7.07
2019-02-16T02:56:40.258Z,6.53
2019-02-16T02:59:08.293Z,7.40
2019-02-16T03:01:36.342Z,7.17
2019-02-16T03:04:04.436Z,6.60
2019-02-16T03:06:35.992Z,7.73
2019-02-16T03:09:05.405Z,6.90
2019-02-16T03:11:33.435Z,6.67
2019-02-16T03:14:01.406Z,6.93
2019-02-16T03:16:29.370Z,7.63
2019-02-16T03:18:57.435Z,7.23
2019-02-16T03:21:25.474Z,6.80
2019-02-16T03:23:53.595Z,7.40
2019-02-16T03:26:46.979Z,7.67
2019-02-16T03:29:43.358Z,7.77
2019-02-16T03:32:30.504Z,6.90
2019-02-16T03:35:07.033Z,7.50
2019-02-16T03:38:01.438Z,7.33
2019-02-16T03:40:30.180Z,7.20
2019-02-16T03:42:58.181Z,7.53
2019-02-16T03:45:26.216Z,6.83
2019-02-16T03:47:54.275Z,7.30
2019-02-16T03:50:22.292Z,7.23
2019-02-16T03:52:50.323Z,7.03
2019-02-16T03:55:18.341Z,6.90
2019-02-16T03:57:46.483Z,6.60
2019-02-16T04:00:14.503Z,7.37
2019-02-16T04:02:42.475Z,7.40
2019-02-16T04:05:10.454Z,6.67
2019-02-16T04:07:38.484Z,7.00
2019-02-16T04:10:06.562Z,6.87
2019-02-16T04:12:34.556Z,6.17
2019-02-16T04:15:02.599Z,6.60
2019-02-16T04:17:30.767Z,7.37
2019-02-16T04:19:58.812Z,7.10
2019-02-16T04:22:26.889Z,7.00
2019-02-16T04:24:54.929Z,7.20
2019-02-16T04:27:23.080Z,6.40
2019-02-16T04:29:51.157Z,6.87
2019-02-16T04:32:19.537Z,6.67
2019-02-16T04:34:47.667Z,6.90
2019-02-16T04:37:15.646Z,6.87
2019-02-16T04:39:43.719Z,6.93
2019-02-16T04:42:11.756Z,6.23
2019-02-16T04:44:39.887Z,6.33
2019-02-16T04:47:07.892Z,7.30
2019-02-16T04:49:36.010Z,6.13
2019-02-16T04:52:04.009Z,6.23
2019-02-16T04:54:32.048Z,6.43
2019-02-16T04:57:00.045Z,6.80
2019-02-16T04:59:28.206Z,6.97
2019-02-16T05:01:56.307Z,6.57
2019-02-16T05:04:24.327Z,6.83
2019-02-16T05:06:52.340Z,6.17
2019-02-16T05:09:20.326Z,6.60
2019-02-16T05:11:48.659Z,6.30
2019-02-16T05:14:16.872Z,6.63
2019-02-16T05:16:45.392Z,6.57
2019-02-16T05:19:13.396Z,6.67
2019-02-16T05:21:41.494Z,7.10
2019-02-16T05:24:09.460Z,6.37
2019-02-16T05:26:37.415Z,6.47
2019-02-16T05:29:05.382Z,6.60
2019-02-16T05:31:33.397Z,6.80
2019-02-16T05:34:01.400Z,6.40
2019-02-16T05:36:29.511Z,5.73
2019-02-16T05:38:57.564Z,6.23
2019-02-16T05:41:25.533Z,6.30
2019-02-16T05:43:53.637Z,6.10
2019-02-16T05:46:21.669Z,6.07
2019-02-16T05:48:49.692Z,5.63
2019-02-16T05:51:18.050Z,6.83
2019-02-16T05:53:46.061Z,6.13
2019-02-16T05:56:13.988Z,6.27
2019-02-16T05:58:41.929Z,5.87
2019-02-16T06:01:09.987Z,6.00
2019-02-16T06:03:38.031Z,6.50
2019-02-16T06:06:06.028Z,6.17
2019-02-16T06:08:34.078Z,5.67
2019-02-16T06:11:02.158Z,5.90
2019-02-16T06:13:30.481Z,6.30
2019-02-16T06:15:58.498Z,6.00
2019-02-16T06:18:26.450Z,6.20
2019-02-16T06:20:54.484Z,6.00
2019-02-16T06:23:22.554Z,6.20
2019-02-16T06:25:50.627Z,5.70
2019-02-16T06:28:18.710Z,6.27
2019-02-16T06:30:46.723Z,5.97
2019-02-16T06:33:14.864Z,5.73
2019-02-16T06:36:01.891Z,5.90
2019-02-16T06:38:29.975Z,6.00
2019-02-16T06:40:58.016Z,6.27
2019-02-16T06:43:26.131Z,5.90
2019-02-16T06:45:54.103Z,6.20
2019-02-16T06:48:22.039Z,6.20
2019-02-16T06:50:50.109Z,6.00
2019-02-16T06:53:18.166Z,6.50
2019-02-16T06:56:05.160Z,6.00
2019-02-16T06:58:33.311Z,5.90
2019-02-16T07:01:01.272Z,6.13
2019-02-16T07:03:29.296Z,6.37
2019-02-16T07:05:57.332Z,5.87
2019-02-16T07:08:25.270Z,6.13
2019-02-16T07:10:53.225Z,6.03
2019-02-16T07:13:21.228Z,6.30
2019-02-16T07:16:08.197Z,6.20
2019-02-16T07:19:10.122Z,6.10
2019-02-16T07:21:38.641Z,6.03
2019-02-16T07:24:06.670Z,5.90
2019-02-16T07:26:34.579Z,6.03
2019-02-16T07:29:02.648Z,6.10
2019-02-16T07:31:30.693Z,6.47
2019-02-16T07:33:58.734Z,6.17
2019-02-16T07:36:26.841Z,5.87
2019-02-16T07:38:54.848Z,6.27
2019-02-16T07:41:22.892Z,5.50
2019-02-16T07:44:08.309Z,5.80
2019-02-16T07:46:50.738Z,5.90
2019-02-16T07:49:26.019Z,5.57
2019-02-16T07:52:13.375Z,6.07
2019-02-16T07:55:06.200Z,5.30
2019-02-16T07:57:48.953Z,5.90
2019-02-16T08:00:37.256Z,5.73
2019-02-16T08:03:19.789Z,5.23
2019-02-16T08:05:54.303Z,5.03
2019-02-16T08:08:41.276Z,5.80
2019-02-16T08:11:30.348Z,5.50
2019-02-16T08:14:14.180Z,5.43
2019-02-16T08:16:59.791Z,5.40
2019-02-16T08:19:56.173Z,5.50
2019-02-16T08:22:40.210Z,5.40
2019-02-16T08:25:19.925Z,5.30
2019-02-16T08:28:06.941Z,4.90
2019-02-16T08:31:06.247Z,5.30
2019-02-16T08:33:56.294Z,5.00
2019-02-16T08:36:54.699Z,5.30
2019-02-16T08:39:53.745Z,5.47
2019-02-16T08:42:45.904Z,5.40
2019-02-16T08:45:26.488Z,5.17
2019-02-16T08:48:03.292Z,4.93
2019-02-16T08:50:40.676Z,5.20
2019-02-16T08:53:27.643Z,5.80
2019-02-16T08:56:02.951Z,5.10
2019-02-16T08:58:48.856Z,5.13
2019-02-16T09:01:38.720Z,5.30
2019-02-16T09:04:29.727Z,4.70
2019-02-16T09:07:10.092Z,5.17
2019-02-16T09:10:06.081Z,5.63
2019-02-16T09:12:45.229Z,5.13
2019-02-16T09:15:37.330Z,5.60
2019-02-16T09:18:33.128Z,5.33
2019-02-16T09:21:26.221Z,5.23
2019-02-16T09:23:59.680Z,5.37
2019-02-16T09:26:38.258Z,5.50
2019-02-16T09:29:25.268Z,5.73
2019-02-16T09:32:18.239Z,5.70
2019-02-16T09:35:03.809Z,5.77
2019-02-16T09:37:50.887Z,5.90
2019-02-16T09:40:36.399Z,5.43
2019-02-16T09:43:19.287Z,5.47
2019-02-16T09:46:03.892Z,5.73
2019-02-16T09:48:54.719Z,6.40
2019-02-16T09:51:41.755Z,5.50
2019-02-16T09:54:19.856Z,5.27
2019-02-16T09:56:55.892Z,5.90
2019-02-16T09:59:52.107Z,5.50
2019-02-16T10:02:47.545Z,5.57
2019-02-16T10:05:32.291Z,5.63
2019-02-16T10:08:28.284Z,5.80
2019-02-16T10:11:17.850Z,6.10
2019-02-16T10:14:01.927Z,5.50
2019-02-16T10:16:48.968Z,5.27
2019-02-16T10:19:34.726Z,4.90
2019-02-16T10:22:24.332Z,5.57
2019-02-16T10:25:09.753Z,5.63
2019-02-16T10:28:08.645Z,5.10
2019-02-16T10:31:00.748Z,5.37
2019-02-16T10:33:59.720Z,5.50
2019-02-16T10:36:38.876Z,5.20
2019-02-16T10:39:35.654Z,5.17
2019-02-16T10:42:28.299Z,5.40
2019-02-16T10:45:06.877Z,5.13
2019-02-16T10:47:59.604Z,5.43
2019-02-16T10:50:35.028Z,4.67
2019-02-16T10:53:23.222Z,5.03
2019-02-16T10:56:18.956Z,4.73
2019-02-16T10:59:00.068Z,4.83
2019-02-16T11:01:56.217Z,5.50
2019-02-16T11:04:43.282Z,5.50
2019-02-16T11:07:24.953Z,5.30
2019-02-16T11:09:58.138Z,5.03
2019-02-16T11:12:57.527Z,5.03
2019-02-16T11:15:45.569Z,5.00
2019-02-16T11:18:38.691Z,4.93
2019-02-16T11:21:31.702Z,5.37
2019-02-16T11:24:21.957Z,5.53
2019-02-16T11:27:05.757Z,5.27
2019-02-16T11:29:48.410Z,5.63
2019-02-16T11:32:50.342Z,6.10
2019-02-16T11:35:34.098Z,5.40
2019-02-16T11:38:23.956Z,5.97
2019-02-16T11:41:08.906Z,6.67
2019-02-16T11:43:58.984Z,6.07
2019-02-16T11:47:01.682Z,6.33
2019-02-16T11:49:50.896Z,6.57
2019-02-16T11:52:26.764Z,6.87
2019-02-16T11:55:13.847Z,6.07
2019-02-16T11:57:48.504Z,6.77
2019-02-16T12:00:28.901Z,6.80
2019-02-16T12:03:05.372Z,7.70
2019-02-16T12:05:47.322Z,6.57
2019-02-16T12:08:45.554Z,7.40
2019-02-16T12:11:41.510Z,7.77
2019-02-16T12:14:22.580Z,7.40
2019-02-16T12:17:09.618Z,8.10
2019-02-16T12:19:53.266Z,8.80
2019-02-16T12:22:34.067Z,8.70
2019-02-16T12:25:23.780Z,7.93
2019-02-16T12:28:04.323Z,8.50
2019-02-16T12:30:46.510Z,8.43
2019-02-16T12:33:45.476Z,9.10
2019-02-16T12:36:35.803Z,8.13
2019-02-16T12:39:27.657Z,7.90
2019-02-16T12:42:08.207Z,9.00
2019-02-16T12:44:53.865Z,8.93
2019-02-16T12:47:43.960Z,8.77
2019-02-16T12:50:36.619Z,8.90
2019-02-16T12:53:21.376Z,8.40
2019-02-16T12:56:09.481Z,8.67
2019-02-16T12:58:41.620Z,9.00
2019-02-16T13:01:28.702Z,8.20
2019-02-16T13:04:15.183Z,8.60
2019-02-16T13:07:01.714Z,9.00
2019-02-16T13:12:35.395Z,9.33
2019-02-16T13:15:28.555Z,8.17
2019-02-16T13:18:07.517Z,9.30
2019-02-16T13:21:04.688Z,8.47
2019-02-16T13:23:55.167Z,8.10
2019-02-16T13:26:40.778Z,8.87
2019-02-16T13:29:22.403Z,8.97
2019-02-16T13:32:18.323Z,8.63
2019-02-16T13:35:07.380Z,9.30
2019-02-16T13:37:51.503Z,8.73
2019-02-16T13:40:40.228Z,8.07
2019-02-16T13:43:24.556Z,9.20
2019-02-16T13:46:24.545Z,8.43
2019-02-16T13:49:15.123Z,8.60
2019-02-16T13:52:01.528Z,8.90
2019-02-16T13:54:51.232Z,8.43
2019-02-16T13:57:36.819Z,8.67
2019-02-16T14:00:11.572Z,8.70
2019-02-16T14:02:57.494Z,8.70
2019-02-16T14:05:46.023Z,8.70
2019-02-16T14:08:31.855Z,8.70
2019-02-16T14:11:24.815Z,8.43
2019-02-16T14:14:20.859Z,8.43
2019-02-16T14:16:57.461Z,8.30
2019-02-16T14:19:25.503Z,8.70
2019-02-16T14:21:53.475Z,8.57
2019-02-16T14:24:40.210Z,8.20
2019-02-16T14:27:08.207Z,8.10
2019-02-16T14:29:36.216Z,8.43
2019-02-16T14:32:04.269Z,8.37
2019-02-16T14:34:32.360Z,8.53
2019-02-16T14:37:02.135Z,8.40
2019-02-16T14:39:32.967Z,8.63
2019-02-16T14:42:01.029Z,8.33
2019-02-16T14:44:29.010Z,8.23
2019-02-16T14:46:58.161Z,8.80
2019-02-16T14:49:26.210Z,7.83
2019-02-16T14:51:54.535Z,8.33
2019-02-16T14:54:23.591Z,7.60
2019-02-16T14:56:53.575Z,8.37
2019-02-16T14:59:24.316Z,7.73
2019-02-16T15:01:52.305Z,8.07
2019-02-16T15:04:20.330Z,7.67
2019-02-16T15:06:48.394Z,7.90
2019-02-16T15:09:16.526Z,8.30
2019-02-16T15:11:44.651Z,7.80
2019-02-16T15:14:12.588Z,7.80
2019-02-16T15:16:40.647Z,8.00
2019-02-16T15:19:08.739Z,7.47
2019-02-16T15:21:39.607Z,7.20
2019-02-16T15:24:07.646Z,7.57
2019-02-16T15:26:37.901Z,7.77
2019-02-16T15:29:08.936Z,7.37
2019-02-16T15:31:36.904Z,8.53
2019-02-16T15:34:04.948Z,9.63
2019-02-16T15:36:33.024Z,13.38
2019-02-16T15:39:04.719Z,10.60
2019-02-16T15:41:32.765Z,12.40
2019-02-16T15:44:00.845Z,11.83
2019-02-16T15:46:30.872Z,11.70
2019-02-16T15:48:58.988Z,12.90
2019-02-16T15:51:29.780Z,12.73
2019-02-16T15:53:57.819Z,13.40
2019-02-16T15:56:25.892Z,13.53
2019-02-16T15:58:54.603Z,13.67
2019-02-16T16:01:22.647Z,14.37
2019-02-16T16:03:52.936Z,13.70
2019-02-16T16:06:23.919Z,14.50
2019-02-16T16:09:06.996Z,14.77
2019-02-16T16:11:50.449Z,14.43
2019-02-16T16:14:31.480Z,15.03
2019-02-16T16:17:16.800Z,15.23
2019-02-16T16:19:51.725Z,15.73
2019-02-16T16:22:38.745Z,14.90
2019-02-16T16:25:24.281Z,15.63
2019-02-16T16:28:05.004Z,15.43
2019-02-16T16:30:41.232Z,15.30
2019-02-16T16:33:18.087Z,15.47
2019-02-16T16:36:07.728Z,15.53
2019-02-16T16:39:00.169Z,15.17
2019-02-16T16:41:38.224Z,15.10
2019-02-16T16:44:23.821Z,15.73
2019-02-16T16:47:14.030Z,14.57
2019-02-16T16:50:03.837Z,15.70
2019-02-16T16:52:46.526Z,15.13
2019-02-16T16:55:20.422Z,15.53
2019-02-16T16:58:00.748Z,15.73
2019-02-16T17:00:53.762Z,15.93
2019-02-16T17:03:35.503Z,16.40
2019-02-16T17:06:28.555Z,16.50
2019-02-16T17:09:15.774Z,17.30
2019-02-16T17:12:14.667Z,16.33
2019-02-16T17:15:10.443Z,16.23
2019-02-16T17:18:02.775Z,17.23
2019-02-16T17:21:01.977Z,17.67
2019-02-16T17:23:47.976Z,17.13
2019-02-16T17:26:37.772Z,17.07
2019-02-16T17:29:22.379Z,17.07
2019-02-16T17:32:08.783Z,16.97
2019-02-16T17:34:58.643Z,16.67
2019-02-16T17:37:33.506Z,16.10
2019-02-16T17:40:20.629Z,17.03
2019-02-16T17:43:19.896Z,16.87
2019-02-16T17:46:01.967Z,17.60
2019-02-16T17:48:48.907Z,16.63
2019-02-16T17:51:40.612Z,17.17
2019-02-16T17:54:39.676Z,16.47
2019-02-16T17:57:25.782Z,16.47
2019-02-16T18:00:15.571Z,17.37
2019-02-16T18:03:01.176Z,16.47
2019-02-16T18:05:54.140Z,16.63
2019-02-16T18:08:53.129Z,18.87
2019-02-16T18:11:38.788Z,16.47
2019-02-16T18:14:17.935Z,16.27
2019-02-16T18:17:10.597Z,16.17
2019-02-16T18:19:57.673Z,17.50
2019-02-16T18:22:34.986Z,16.53
2019-02-16T18:25:20.527Z,16.17
2019-02-16T18:28:07.622Z,15.93
2019-02-16T18:30:47.012Z,17.60
2019-02-16T18:33:45.852Z,17.20
2019-02-16T18:36:31.480Z,15.97
2019-02-16T18:39:27.670Z,16.03
2019-02-16T18:42:06.989Z,16.60
2019-02-16T18:44:43.186Z,16.97
2019-02-16T18:47:29.593Z,16.00
2019-02-16T18:50:16.600Z,16.80
2019-02-16T18:52:52.369Z,16.23
2019-02-16T18:55:39.390Z,17.00
2019-02-16T18:58:33.710Z,16.03
2019-02-16T19:01:17.907Z,16.63
2019-02-16T19:04:04.944Z,15.63
2019-02-16T19:06:42.702Z,17.17
2019-02-16T19:09:17.804Z,16.43
2019-02-16T19:11:53.996Z,16.47
2019-02-16T19:14:41.002Z,16.77
2019-02-16T19:17:26.429Z,16.47
2019-02-16T19:20:16.194Z,16.17
2019-02-16T19:23:01.616Z,17.40
2019-02-16T19:25:34.515Z,16.13
2019-02-16T19:28:19.784Z,16.57
2019-02-16T19:31:01.408Z,17.20
2019-02-16T19:33:39.655Z,17.13
2019-02-16T19:36:32.477Z,16.23
2019-02-16T19:39:12.051Z,17.73
2019-02-16T19:42:07.968Z,17.07
2019-02-16T19:44:53.785Z,15.90
2019-02-16T19:47:33.903Z,16.20
2019-02-16T19:50:22.217Z,15.40
2019-02-16T19:53:04.451Z,17.20
2019-02-16T19:55:45.972Z,16.43
2019-02-16T19:58:27.303Z,16.90
2019-02-16T20:01:12.844Z,16.47
2019-02-16T20:04:08.810Z,17.43
2019-02-16T20:06:58.565Z,17.40
2019-02-16T20:09:43.436Z,16.87
2019-02-16T20:12:28.848Z,17.03
2019-02-16T20:15:14.446Z,17.37
2019-02-16T20:18:16.325Z,19.13
2019-02-16T20:21:03.346Z,16.40
2019-02-16T20:23:59.234Z,17.43
2019-02-16T20:26:45.091Z,18.00
2019-02-16T20:29:24.045Z,17.30
2019-02-16T20:32:02.631Z,17.97
2019-02-16T20:34:41.114Z,17.47
2019-02-16T20:37:26.792Z,17.83
2019-02-16T20:40:08.197Z,18.07
2019-02-16T20:42:47.988Z,17.47
2019-02-16T20:45:21.082Z,18.00
2019-02-16T20:48:15.268Z,18.00
2019-02-16T20:51:02.242Z,18.30
2019-02-16T20:53:57.957Z,17.23
2019-02-16T20:56:40.898Z,17.77
2019-02-16T20:59:27.881Z,17.63
2019-02-16T21:02:30.112Z,17.40
2019-02-16T21:05:04.874Z,17.00
2019-02-16T21:07:52.096Z,16.33
2019-02-16T21:10:39.179Z,16.90
2019-02-16T21:13:14.929Z,17.17
2019-02-16T21:16:02.080Z,17.77
2019-02-16T21:18:49.096Z,17.57
2019-02-16T21:21:28.510Z,16.03
2019-02-16T21:24:08.709Z,17.87
2019-02-16T21:26:58.521Z,16.43
2019-02-16T21:29:48.362Z,17.27
2019-02-16T21:32:36.675Z,17.00
2019-02-16T21:35:23.840Z,16.70
2019-02-16T21:38:07.743Z,16.87
2019-02-16T21:40:51.854Z,16.53
2019-02-16T21:43:48.007Z,16.43
2019-02-16T21:46:45.403Z,17.03
2019-02-16T21:49:25.944Z,16.00
2019-02-16T21:52:25.342Z,16.37
2019-02-16T21:55:23.679Z,16.87
2019-02-16T21:58:10.836Z,16.37
2019-02-16T22:00:57.870Z,16.33
2019-02-16T22:03:43.568Z,16.63
2019-02-16T22:06:30.002Z,15.67
2019-02-16T22:09:13.973Z,16.20
2019-02-16T22:12:00.378Z,16.63
2019-02-16T22:14:28.419Z,15.93
2019-02-16T22:16:56.465Z,15.97
2019-02-16T22:19:24.520Z,17.03
2019-02-16T22:21:52.564Z,16.17
2019-02-16T22:24:20.669Z,16.23
2019-02-16T22:26:48.723Z,16.17
2019-02-16T22:29:16.835Z,17.57
2019-02-16T22:31:44.907Z,15.77
2019-02-16T22:34:13.000Z,16.10
2019-02-16T22:36:40.990Z,14.90
2019-02-16T22:39:08.987Z,15.77
2019-02-16T22:41:37.311Z,16.67
2019-02-16T22:44:07.537Z,16.13
2019-02-16T22:46:35.498Z,15.97
2019-02-16T22:49:03.530Z,16.53
2019-02-16T22:51:31.495Z,14.50
2019-02-16T22:53:59.568Z,13.90
2019-02-16T22:56:27.536Z,15.07
2019-02-16T22:58:55.470Z,14.30
2019-02-16T23:01:25.364Z,14.80
2019-02-16T23:03:53.447Z,15.00
2019-02-16T23:06:24.058Z,14.23
2019-02-16T23:08:53.278Z,13.57
2019-02-16T23:11:21.407Z,13.00
2019-02-16T23:13:49.464Z,13.03
2019-02-16T23:16:17.563Z,13.43
2019-02-16T23:18:45.593Z,12.93
2019-02-16T23:21:13.780Z,13.20
2019-02-16T23:23:44.693Z,12.93
2019-02-16T23:26:16.101Z,12.90
2019-02-16T23:28:44.144Z,12.80
2019-02-16T23:31:12.288Z,13.03
2019-02-16T23:33:40.350Z,13.73
2019-02-16T23:36:08.354Z,12.63
2019-02-16T23:38:37.503Z,12.63
2019-02-16T23:41:06.419Z,13.23
2019-02-16T23:43:34.640Z,12.80
2019-02-16T23:46:02.692Z,12.57
2019-02-16T23:48:31.086Z,12.07
2019-02-16T23:50:59.147Z,12.20
2019-02-16T23:53:30.181Z,12.63
2019-02-16T23:55:58.243Z,11.13
2019-02-16T23:58:26.180Z,11.50
